createdAt,value
2022-12-18T00:00:47.973Z,-2.90
2022-12-18T00:03:34.748Z,-3.00
2022-12-18T00:06:21.306Z,-3.10
2022-12-18T00:09:07.424Z,-3.20
2022-12-18T00:11:53.471Z,-3.20
2022-12-18T00:14:39.460Z,-3.30
2022-12-18T00:17:27.451Z,-3.30
2022-12-18T00:20:14.173Z,-3.20
2022-12-18T00:23:00.071Z,-3.30
2022-12-18T00:25:46.399Z,-3.30
2022-12-18T00:28:32.479Z,-3.40
2022-12-18T00:31:19.509Z,-3.40
2022-12-18T00:34:05.086Z,-3.50
2022-12-18T00:36:51.062Z,-3.60
2022-12-18T00:39:37.452Z,-3.50
2022-12-18T00:42:42.150Z,-3.60
2022-12-18T00:45:31.595Z,-3.50
2022-12-18T00:48:17.800Z,-3.50
2022-12-18T00:51:03.935Z,-3.50
2022-12-18T00:53:50.208Z,-3.50
2022-12-18T00:56:39.384Z,-3.40
2022-12-18T00:59:31.873Z,-3.40
2022-12-18T01:02:18.016Z,-3.40
2022-12-18T01:05:04.335Z,-3.30
2022-12-18T01:07:50.126Z,-3.40
2022-12-18T01:10:36.040Z,-3.30
2022-12-18T01:13:23.150Z,-3.40
2022-12-18T01:16:12.363Z,-3.30
2022-12-18T01:18:58.092Z,-3.40
2022-12-18T01:21:46.745Z,-3.40
2022-12-18T01:24:33.020Z,-3.40
2022-12-18T01:27:19.181Z,-3.50
2022-12-18T01:30:05.229Z,-3.50
2022-12-18T01:32:51.031Z,-3.60
2022-12-18T01:35:43.827Z,-3.60
2022-12-18T01:38:30.396Z,-3.50
2022-12-18T01:41:17.523Z,-3.40
2022-12-18T01:44:23.444Z,-3.20
2022-12-18T01:47:09.519Z,-3.10
2022-12-18T01:49:56.444Z,-3.00
2022-12-18T01:53:02.976Z,-3.00
2022-12-18T01:55:58.639Z,-3.00
2022-12-18T01:58:44.682Z,-3.10
2022-12-18T02:01:31.815Z,-3.00
2022-12-18T02:04:24.792Z,-3.00
2022-12-18T02:07:21.072Z,-3.10
2022-12-18T02:10:20.737Z,-3.10
2022-12-18T02:13:06.565Z,-3.10
2022-12-18T02:15:59.763Z,-3.20
2022-12-18T02:18:48.598Z,-3.20
2022-12-18T02:21:43.522Z,-3.20
2022-12-18T02:24:35.760Z,-3.10
2022-12-18T02:27:21.516Z,-3.10
2022-12-18T02:30:08.726Z,-3.10
2022-12-18T02:32:55.248Z,-3.10
2022-12-18T02:35:42.062Z,-3.20
2022-12-18T02:38:29.380Z,-3.20
2022-12-18T02:41:18.987Z,-3.20
2022-12-18T02:44:08.964Z,-3.10
2022-12-18T02:46:55.399Z,-3.10
2022-12-18T02:49:49.003Z,-3.00
2022-12-18T02:52:51.090Z,-3.00
2022-12-18T02:55:53.016Z,-3.00
2022-12-18T02:58:49.668Z,-3.10
2022-12-18T03:02:13.999Z,-3.20
2022-12-18T03:05:04.021Z,-3.20
2022-12-18T03:07:53.081Z,-3.10
2022-12-18T03:10:43.426Z,-3.10
2022-12-18T03:13:32.594Z,-3.10
2022-12-18T03:16:24.948Z,-3.00
2022-12-18T03:19:17.395Z,-3.00
2022-12-18T03:22:05.552Z,-3.00
2022-12-18T03:25:06.000Z,-3.00
2022-12-18T03:27:55.605Z,-2.90
2022-12-18T03:30:42.969Z,-2.90
2022-12-18T03:33:32.739Z,-2.90
2022-12-18T03:36:18.515Z,-3.00
2022-12-18T03:39:04.336Z,-2.90
2022-12-18T03:41:54.435Z,-3.00
2022-12-18T03:45:04.208Z,-2.90
2022-12-18T03:48:02.295Z,-3.00
2022-12-18T03:51:02.395Z,-3.00
2022-12-18T03:53:54.498Z,-3.00
2022-12-18T03:56:45.254Z,-2.90
2022-12-18T03:59:31.412Z,-2.80
2022-12-18T04:02:18.329Z,-2.80
2022-12-18T04:05:07.251Z,-2.80
2022-12-18T04:07:57.647Z,-2.70
2022-12-18T04:10:43.890Z,-2.80
2022-12-18T04:13:32.651Z,-2.70
2022-12-18T04:16:20.493Z,-2.80
2022-12-18T04:19:10.439Z,-2.70
2022-12-18T04:21:59.868Z,-2.80
2022-12-18T04:24:47.468Z,-2.90
2022-12-18T04:27:41.708Z,-2.90
2022-12-18T04:30:28.216Z,-2.90
2022-12-18T04:33:17.149Z,-2.80
2022-12-18T04:36:03.643Z,-2.80
2022-12-18T04:38:49.755Z,-2.70
2022-12-18T04:41:36.681Z,-2.80
2022-12-18T04:44:23.576Z,-2.80
2022-12-18T04:47:09.626Z,-2.80
2022-12-18T04:49:55.564Z,-2.80
2022-12-18T04:52:41.680Z,-2.90
2022-12-18T04:55:28.251Z,-2.90
2022-12-18T04:58:14.277Z,-2.90
2022-12-18T05:01:00.119Z,-3.00
2022-12-18T05:03:46.413Z,-3.00
2022-12-18T05:06:32.323Z,-3.00
2022-12-18T05:09:18.357Z,-3.00
2022-12-18T05:12:05.510Z,-2.90
2022-12-18T05:14:52.042Z,-2.90
2022-12-18T05:17:38.466Z,-2.80
2022-12-18T05:20:24.788Z,-2.90
2022-12-18T05:23:10.764Z,-2.80
2022-12-18T05:25:57.653Z,-2.90
2022-12-18T05:28:43.731Z,-2.80
2022-12-18T05:31:31.462Z,-2.80
2022-12-18T05:34:19.580Z,-2.80
2022-12-18T05:37:05.598Z,-2.70
2022-12-18T05:39:51.399Z,-2.70
2022-12-18T05:42:37.520Z,-2.70
2022-12-18T05:45:23.544Z,-2.70
2022-12-18T05:48:09.927Z,-2.70
2022-12-18T05:50:56.106Z,-2.80
2022-12-18T05:53:42.844Z,-2.80
2022-12-18T05:56:28.888Z,-2.70
2022-12-18T05:59:15.404Z,-2.80
2022-12-18T06:02:01.592Z,-2.80
2022-12-18T06:04:47.968Z,-2.80
2022-12-18T06:07:34.007Z,-2.80
2022-12-18T06:10:20.245Z,-2.90
2022-12-18T06:13:06.919Z,-2.90
2022-12-18T06:15:52.657Z,-2.90
2022-12-18T06:18:38.771Z,-2.80
2022-12-18T06:21:24.735Z,-2.80
2022-12-18T06:24:10.382Z,-2.80
2022-12-18T06:26:56.463Z,-2.90
2022-12-18T06:29:42.864Z,-2.90
2022-12-18T06:32:28.655Z,-2.90
2022-12-18T06:35:14.710Z,-2.90
2022-12-18T06:38:02.012Z,-2.90
2022-12-18T06:40:47.730Z,-2.90
2022-12-18T06:43:33.595Z,-2.90
2022-12-18T06:46:19.655Z,-3.00
2022-12-18T06:49:05.550Z,-3.00
2022-12-18T06:51:51.653Z,-3.10
2022-12-18T06:54:37.644Z,-3.00
2022-12-18T06:57:23.780Z,-3.00
2022-12-18T07:00:10.322Z,-3.00
2022-12-18T07:02:56.112Z,-2.90
2022-12-18T07:05:42.028Z,-2.80
2022-12-18T07:08:29.420Z,-2.80
2022-12-18T07:11:15.680Z,-2.80
2022-12-18T07:14:01.994Z,-2.80
2022-12-18T07:16:47.720Z,-2.80
2022-12-18T07:19:33.808Z,-2.80
2022-12-18T07:22:19.584Z,-2.80
2022-12-18T07:25:05.811Z,-2.80
2022-12-18T07:27:51.696Z,-2.90
2022-12-18T07:30:38.632Z,-2.80
2022-12-18T07:33:24.519Z,-2.90
2022-12-18T07:36:10.903Z,-2.90
2022-12-18T07:38:57.167Z,-2.80
2022-12-18T07:41:47.345Z,-2.70
2022-12-18T07:44:35.532Z,-2.70
2022-12-18T07:47:21.626Z,-2.60
2022-12-18T07:50:07.872Z,-2.70
2022-12-18T07:52:53.767Z,-2.60
2022-12-18T07:56:05.435Z,-2.70
2022-12-18T07:58:49.196Z,-2.60
2022-12-18T08:01:35.502Z,-2.70
2022-12-18T08:04:21.631Z,-2.60
2022-12-18T08:07:07.736Z,-2.60
2022-12-18T08:09:53.716Z,-2.70
2022-12-18T08:12:39.966Z,-2.80
2022-12-18T08:15:25.804Z,-2.90
2022-12-18T08:18:14.431Z,-3.00
2022-12-18T08:21:10.438Z,-2.90
2022-12-18T08:23:57.277Z,-3.00
2022-12-18T08:26:51.864Z,-3.00
2022-12-18T08:29:46.919Z,-2.90
2022-12-18T08:32:33.937Z,-2.70
2022-12-18T08:35:19.740Z,-2.60
2022-12-18T08:38:05.796Z,-2.60
2022-12-18T08:40:59.397Z,-2.60
2022-12-18T08:44:04.157Z,-2.50
2022-12-18T08:46:50.597Z,-2.50
2022-12-18T08:49:36.791Z,-2.50
2022-12-18T08:52:22.822Z,-2.50
2022-12-18T08:55:09.384Z,-2.50
2022-12-18T08:57:55.600Z,-2.40
2022-12-18T09:00:43.425Z,-2.40
2022-12-18T09:03:29.260Z,-2.30
2022-12-18T09:06:17.012Z,-2.40
2022-12-18T09:09:03.492Z,-2.50
2022-12-18T09:11:49.298Z,-2.30
2022-12-18T09:14:35.503Z,-2.30
2022-12-18T09:17:21.539Z,-2.10
2022-12-18T09:20:07.993Z,-2.20
2022-12-18T09:22:54.170Z,-2.40
2022-12-18T09:25:40.608Z,-2.40
2022-12-18T09:28:26.864Z,-2.50
2022-12-18T09:31:16.026Z,-2.60
2022-12-18T09:34:02.050Z,-2.50
2022-12-18T09:36:48.443Z,-2.40
2022-12-18T09:39:36.247Z,-2.30
2022-12-18T09:42:22.644Z,-2.20
2022-12-18T09:45:12.744Z,-2.10
2022-12-18T09:47:58.703Z,-2.10
2022-12-18T09:50:45.079Z,-2.00
2022-12-18T09:53:34.001Z,-2.00
2022-12-18T09:56:23.826Z,-2.20
2022-12-18T09:59:22.041Z,-2.20
2022-12-18T10:02:16.203Z,-2.00
2022-12-18T10:05:12.790Z,-2.00
2022-12-18T10:08:12.643Z,-2.00
2022-12-18T10:11:01.253Z,-1.90
2022-12-18T10:13:46.987Z,-1.90
2022-12-18T10:16:33.047Z,-1.80
2022-12-18T10:19:24.597Z,-2.00
2022-12-18T10:22:22.368Z,-2.10
2022-12-18T10:25:20.401Z,-2.00
2022-12-18T10:28:16.955Z,-1.90
2022-12-18T10:31:02.848Z,-1.70
2022-12-18T10:33:48.557Z,-1.80
2022-12-18T10:36:34.200Z,-1.80
2022-12-18T10:39:23.250Z,-1.80
2022-12-18T10:42:16.952Z,-1.80
2022-12-18T10:45:04.846Z,-1.70
2022-12-18T10:47:50.862Z,-1.60
2022-12-18T10:51:09.756Z,-1.60
2022-12-18T10:53:52.427Z,-1.60
2022-12-18T10:56:38.954Z,-1.60
2022-12-18T10:59:24.970Z,-1.60
2022-12-18T11:02:26.361Z,-1.50
2022-12-18T11:05:29.992Z,-1.50
2022-12-18T11:08:24.989Z,-1.60
2022-12-18T11:11:20.799Z,-1.60
2022-12-18T11:14:07.625Z,-1.60
2022-12-18T11:17:25.285Z,-1.60
2022-12-18T11:20:01.041Z,-1.60
2022-12-18T11:22:55.835Z,-1.50
2022-12-18T11:25:51.381Z,-1.50
2022-12-18T11:28:38.883Z,-1.50
2022-12-18T11:31:29.681Z,-1.50
2022-12-18T11:34:30.977Z,-1.40
2022-12-18T11:37:20.257Z,-1.40
2022-12-18T11:40:14.467Z,-1.40
2022-12-18T11:43:06.804Z,-1.50
2022-12-18T11:45:55.461Z,-1.70
2022-12-18T11:48:50.830Z,-1.50
2022-12-18T11:51:39.636Z,-1.50
2022-12-18T11:54:25.480Z,-1.50
2022-12-18T11:57:11.464Z,-1.60
2022-12-18T12:00:00.524Z,-1.60
2022-12-18T12:02:46.875Z,-1.60
2022-12-18T12:05:47.864Z,-1.60
2022-12-18T12:08:42.754Z,-1.50
2022-12-18T12:11:28.444Z,-1.60
2022-12-18T12:14:14.448Z,-1.70
2022-12-18T12:17:12.513Z,-1.70
2022-12-18T12:19:58.476Z,-1.80
2022-12-18T12:22:59.481Z,-1.90
2022-12-18T12:26:02.908Z,-1.80
2022-12-18T12:28:54.995Z,-1.90
2022-12-18T12:31:47.109Z,-2.00
2022-12-18T12:34:33.095Z,-2.00
2022-12-18T12:37:19.220Z,-2.00
2022-12-18T12:40:26.833Z,-2.10
2022-12-18T12:43:16.739Z,-2.20
2022-12-18T12:46:07.942Z,-2.10
2022-12-18T12:48:56.359Z,-2.20
2022-12-18T12:51:44.324Z,-2.20
2022-12-18T12:54:32.749Z,-2.00
2022-12-18T12:57:24.461Z,-1.90
2022-12-18T13:00:12.645Z,-1.80
2022-12-18T13:03:07.610Z,-1.80
2022-12-18T13:06:01.378Z,-1.80
2022-12-18T13:08:58.535Z,-1.70
2022-12-18T13:12:04.107Z,-1.60
2022-12-18T13:14:50.341Z,-1.60
2022-12-18T13:17:36.903Z,-1.60
2022-12-18T13:20:24.214Z,-1.50
2022-12-18T13:23:25.322Z,-1.50
2022-12-18T13:26:14.463Z,-1.50
2022-12-18T13:29:03.051Z,-1.50
2022-12-18T13:31:49.567Z,-1.60
2022-12-18T13:34:35.956Z,-1.80
2022-12-18T13:37:42.020Z,-1.80
2022-12-18T13:40:40.635Z,-1.90
2022-12-18T13:43:46.011Z,-1.90
2022-12-18T13:46:46.033Z,-2.00
2022-12-18T13:49:44.813Z,-2.00
2022-12-18T13:52:35.774Z,-2.10
2022-12-18T13:55:21.679Z,-2.10
2022-12-18T13:58:07.653Z,-2.10
2022-12-18T14:00:53.737Z,-2.10
2022-12-18T14:03:39.787Z,-2.10
2022-12-18T14:06:26.088Z,-2.10
2022-12-18T14:09:20.343Z,-2.10
2022-12-18T14:12:26.127Z,-2.40
2022-12-18T14:15:32.504Z,-2.40
2022-12-18T14:18:24.213Z,-2.50
2022-12-18T14:21:39.411Z,-2.50
2022-12-18T14:24:26.503Z,-2.40
2022-12-18T14:27:26.181Z,-2.40
2022-12-18T14:30:24.044Z,-2.40
2022-12-18T14:33:11.774Z,-2.30
2022-12-18T14:36:01.498Z,-2.40
2022-12-18T14:38:52.129Z,-2.50
2022-12-18T14:41:38.035Z,-2.50
2022-12-18T14:44:23.961Z,-2.50
2022-12-18T14:47:14.860Z,-2.50
2022-12-18T14:50:00.965Z,-2.50
2022-12-18T14:52:46.870Z,-2.60
2022-12-18T14:55:33.371Z,-2.60
2022-12-18T14:58:19.844Z,-2.70
2022-12-18T15:01:05.560Z,-2.70
2022-12-18T15:03:52.481Z,-2.80
2022-12-18T15:06:40.845Z,-2.80
2022-12-18T15:09:26.851Z,-2.90
2022-12-18T15:12:23.568Z,-2.80
2022-12-18T15:15:28.412Z,-2.70
2022-12-18T15:18:17.851Z,-2.70
2022-12-18T15:21:11.822Z,-2.80
2022-12-18T15:24:00.616Z,-2.80
2022-12-18T15:26:46.390Z,-2.80
2022-12-18T15:29:32.354Z,-2.80
2022-12-18T15:32:22.916Z,-2.80
2022-12-18T15:35:11.941Z,-2.90
2022-12-18T15:37:57.872Z,-2.80
2022-12-18T15:40:43.955Z,-2.80
2022-12-18T15:43:36.287Z,-2.70
2022-12-18T15:46:23.872Z,-2.70
2022-12-18T15:49:10.060Z,-2.70
2022-12-18T15:51:58.767Z,-2.70
2022-12-18T15:55:03.167Z,-2.70
2022-12-18T15:57:48.932Z,-2.60
2022-12-18T16:00:35.983Z,-2.60
2022-12-18T16:03:22.915Z,-2.60
2022-12-18T16:06:09.976Z,-2.60
2022-12-18T16:08:55.655Z,-2.60
2022-12-18T16:11:44.015Z,-2.60
2022-12-18T16:14:30.774Z,-2.60
2022-12-18T16:17:16.787Z,-2.60
2022-12-18T16:20:02.765Z,-2.70
2022-12-18T16:22:49.004Z,-2.90
2022-12-18T16:25:35.070Z,-3.00
2022-12-18T16:28:21.139Z,-3.10
2022-12-18T16:31:08.139Z,-3.20
2022-12-18T16:34:29.788Z,-3.20
2022-12-18T16:37:16.572Z,-3.20
2022-12-18T16:40:02.259Z,-3.40
2022-12-18T16:42:48.325Z,-3.40
2022-12-18T16:45:34.443Z,-3.40
2022-12-18T16:48:20.337Z,-3.40
2022-12-18T16:51:06.458Z,-3.40
2022-12-18T16:53:52.226Z,-3.30
2022-12-18T16:56:38.623Z,-3.20
2022-12-18T16:59:24.452Z,-3.30
2022-12-18T17:02:28.843Z,-3.30
2022-12-18T17:05:15.189Z,-3.20
2022-12-18T17:08:01.360Z,-3.20
2022-12-18T17:10:47.336Z,-3.00
2022-12-18T17:13:33.205Z,-2.90
2022-12-18T17:16:19.942Z,-3.00
2022-12-18T17:19:06.105Z,-2.90
2022-12-18T17:21:52.557Z,-2.90
2022-12-18T17:24:38.800Z,-2.90
2022-12-18T17:27:24.686Z,-2.80
2022-12-18T17:30:10.960Z,-2.80
2022-12-18T17:32:56.770Z,-2.70
2022-12-18T17:35:42.670Z,-2.90
2022-12-18T17:38:28.686Z,-3.10
2022-12-18T17:41:14.632Z,-3.20
2022-12-18T17:44:05.062Z,-3.10
2022-12-18T17:46:50.932Z,-3.10
2022-12-18T17:49:37.265Z,-3.00
2022-12-18T17:52:23.504Z,-3.00
2022-12-18T17:55:09.861Z,-3.00
2022-12-18T17:57:55.634Z,-2.90
2022-12-18T18:00:42.212Z,-2.80
2022-12-18T18:03:28.388Z,-2.80
2022-12-18T18:06:15.331Z,-2.80
2022-12-18T18:09:01.308Z,-2.80
2022-12-18T18:12:06.121Z,-2.80
2022-12-18T18:14:52.494Z,-2.90
2022-12-18T18:17:38.865Z,-2.90
2022-12-18T18:20:24.967Z,-2.90
2022-12-18T18:23:11.391Z,-3.00
2022-12-18T18:26:02.124Z,-3.10
2022-12-18T18:28:47.940Z,-3.00
2022-12-18T18:31:41.191Z,-3.00
2022-12-18T18:34:28.600Z,-3.00
2022-12-18T18:37:14.332Z,-3.10
2022-12-18T18:40:03.635Z,-3.30
2022-12-18T18:42:49.704Z,-3.30
2022-12-18T18:45:35.657Z,-3.30
2022-12-18T18:48:21.472Z,-3.30
2022-12-18T18:51:09.572Z,-3.30
2022-12-18T18:53:57.272Z,-3.20
2022-12-18T18:57:18.986Z,-3.30
2022-12-18T18:59:51.559Z,-3.30
2022-12-18T19:02:37.466Z,-3.30
2022-12-18T19:05:23.363Z,-3.30
2022-12-18T19:08:10.475Z,-3.30
2022-12-18T19:10:57.997Z,-3.30
2022-12-18T19:13:44.980Z,-3.30
2022-12-18T19:16:31.439Z,-3.30
2022-12-18T19:19:23.415Z,-3.30
2022-12-18T19:22:10.959Z,-3.40
2022-12-18T19:24:56.959Z,-3.40
2022-12-18T19:27:42.959Z,-3.40
2022-12-18T19:30:29.067Z,-3.40
2022-12-18T19:33:34.442Z,-3.40
2022-12-18T19:36:22.638Z,-3.50
2022-12-18T19:39:10.139Z,-3.60
2022-12-18T19:41:55.948Z,-3.70
2022-12-18T19:44:42.023Z,-3.80
2022-12-18T19:47:28.011Z,-3.80
2022-12-18T19:50:14.742Z,-3.90
2022-12-18T19:53:00.573Z,-3.80
2022-12-18T19:55:46.397Z,-3.70
2022-12-18T19:58:34.227Z,-3.60
2022-12-18T20:01:21.263Z,-3.40
2022-12-18T20:04:07.448Z,-3.50
2022-12-18T20:06:53.880Z,-3.50
2022-12-18T20:09:39.884Z,-3.50
2022-12-18T20:12:26.784Z,-3.50
2022-12-18T20:15:12.818Z,-3.40
2022-12-18T20:17:58.837Z,-3.40
2022-12-18T20:20:45.449Z,-3.40
2022-12-18T20:23:32.821Z,-3.30
2022-12-18T20:26:20.052Z,-3.30
2022-12-18T20:29:06.187Z,-3.30
2022-12-18T20:31:52.630Z,-3.20
2022-12-18T20:34:38.665Z,-3.20
2022-12-18T20:37:25.616Z,-3.20
2022-12-18T20:40:13.385Z,-3.20
2022-12-18T20:43:00.306Z,-3.20
2022-12-18T20:45:46.298Z,-3.20
2022-12-18T20:48:32.879Z,-3.20
2022-12-18T20:51:20.500Z,-3.30
2022-12-18T20:54:11.521Z,-3.30
2022-12-18T20:56:58.115Z,-3.30
2022-12-18T20:59:48.101Z,-3.30
2022-12-18T21:02:34.995Z,-3.30
2022-12-18T21:05:21.069Z,-3.20
2022-12-18T21:08:07.245Z,-3.20
2022-12-18T21:10:53.386Z,-3.20
2022-12-18T21:13:41.612Z,-3.20
2022-12-18T21:16:27.803Z,-3.30
2022-12-18T21:19:16.414Z,-3.20
2022-12-18T21:22:03.324Z,-3.20
2022-12-18T21:24:49.591Z,-3.30
2022-12-18T21:27:35.543Z,-3.30
2022-12-18T21:30:21.851Z,-3.20
2022-12-18T21:33:07.574Z,-3.30
2022-12-18T21:35:53.540Z,-3.30
2022-12-18T21:38:39.373Z,-3.20
2022-12-18T21:41:44.061Z,-3.20
2022-12-18T21:44:30.456Z,-3.10
2022-12-18T21:47:22.627Z,-3.10
2022-12-18T21:50:09.500Z,-3.10
2022-12-18T21:52:55.591Z,-3.10
2022-12-18T21:55:41.732Z,-3.10
2022-12-18T21:58:27.700Z,-3.20
2022-12-18T22:01:14.372Z,-3.30
2022-12-18T22:04:00.154Z,-3.20
2022-12-18T22:06:46.760Z,-3.30
2022-12-18T22:09:32.887Z,-3.30
2022-12-18T22:12:35.438Z,-3.40
2022-12-18T22:15:22.072Z,-3.50
2022-12-18T22:18:08.236Z,-3.60
2022-12-18T22:21:01.357Z,-3.40
2022-12-18T22:23:53.081Z,-3.30
2022-12-18T22:26:40.263Z,-3.30
2022-12-18T22:29:45.381Z,-3.20
2022-12-18T22:32:35.111Z,-3.10
2022-12-18T22:35:21.255Z,-3.20
2022-12-18T22:38:07.326Z,-3.20
2022-12-18T22:40:54.406Z,-3.20
2022-12-18T22:43:40.496Z,-3.20
2022-12-18T22:46:27.136Z,-3.30
2022-12-18T22:49:14.307Z,-3.20
2022-12-18T22:51:59.980Z,-3.30
2022-12-18T22:54:46.574Z,-3.20
2022-12-18T22:57:32.300Z,-3.20
2022-12-18T23:00:24.554Z,-3.20
2022-12-18T23:03:10.996Z,-3.20
2022-12-18T23:06:04.561Z,-3.10
2022-12-18T23:08:55.768Z,-3.10
2022-12-18T23:11:42.343Z,-3.20
2022-12-18T23:14:28.757Z,-3.20
2022-12-18T23:17:14.963Z,-3.30
2022-12-18T23:20:01.537Z,-3.20
2022-12-18T23:22:47.330Z,-3.30
2022-12-18T23:25:33.504Z,-3.40
2022-12-18T23:28:19.580Z,-3.50
2022-12-18T23:31:06.953Z,-3.50
2022-12-18T23:33:54.141Z,-3.40
2022-12-18T23:36:46.560Z,-3.50
2022-12-18T23:39:32.691Z,-3.40
2022-12-18T23:42:18.939Z,-3.40
2022-12-18T23:45:17.681Z,-3.30
2022-12-18T23:48:03.725Z,-3.30
2022-12-18T23:50:49.804Z,-3.30
2022-12-18T23:53:36.105Z,-3.40
2022-12-18T23:56:22.074Z,-3.30
2022-12-18T23:59:08.068Z,-3.30
